KACQ

Details ICAO KACQ
Name WASECA MUNI
Region United States
Timezone America/Chicago (UTC-6.0)
Plans Departing 0
Arriving 0
Stats Elevation 1,126 ft / 343 m (AMSL)
Location 44.073470° -93.552943°
Runways 1
Magnetic Variation 0.538° E
Sunrise 2017-12-12 13:41:35 UTC / 2017-12-12 07:41:35 Local
Sunset 2017-12-12 22:37:24 UTC / 2017-12-12 16:37:24 Local
Advertisement - Login to hide

Runways

ID Width Length Bearing (true) Bearing (mag) Surface Threshold Offset Overrun Length
15 75 ft / 23 m 3,400 ft / 1,036 m 154.21° 153.67° Asphalt 0 ft / 0 m 0 ft / 0 m
33 75 ft / 23 m 3,400 ft / 1,036 m 334.21° 333.67° Asphalt 0 ft / 0 m 0 ft / 0 m

Map

Weather


0- 5 10 15 20 25 30 35+ Temperature / ° C

Clouds and Precipitation
Forecast for 2017-12-12 18:00 UTC. Updated an hour ago

Ground ~20,000 ft ~40,000 ft Winds

METAR

KACQ 121555Z AUTO 29005KT 10SM OVC060 M10/M13 A3021 RMK AO2

TAF

Not found

Frequencies

Unicom 122.80 MHz CTAF/UNICOM
Warning: Do not use this data for real-world aviation or navigation. No guarantee of current accuracy is given.